sensor_id;sensor_type;location;lat;lon;timestamp;P1;durP1;ratioP1;P2;durP2;ratioP2
29344;SDS011;16339;48.748;2.222;2023-07-30T01:56:59;10.07;;;2.08;;
29344;SDS011;16339;48.748;2.222;2023-07-30T02:07:16;9.90;;;2.20;;
29344;SDS011;16339;48.748;2.222;2023-07-30T02:10:00;7.90;;;2.00;;
29344;SDS011;16339;48.748;2.222;2023-07-30T02:12:43;7.32;;;1.80;;
29344;SDS011;16339;48.748;2.222;2023-07-30T02:52:52;16.63;;;2.65;;
29344;SDS011;16339;48.748;2.222;2023-07-30T03:06:08;8.15;;;1.98;;
29344;SDS011;16339;48.748;2.222;2023-07-30T03:09:47;10.65;;;2.22;;
29344;SDS011;16339;48.748;2.222;2023-07-30T03:11:53;8.63;;;2.20;;
29344;SDS011;16339;48.748;2.222;2023-07-30T03:14:22;12.50;;;2.00;;
29344;SDS011;16339;48.748;2.222;2023-07-30T03:17:01;14.05;;;2.75;;
29344;SDS011;16339;48.748;2.222;2023-07-30T03:19:31;16.75;;;2.72;;
29344;SDS011;16339;48.748;2.222;2023-07-30T03:22:03;16.50;;;2.72;;
29344;SDS011;16339;48.748;2.222;2023-07-30T03:24:32;9.18;;;2.20;;
29344;SDS011;16339;48.748;2.222;2023-07-30T03:27:01;16.10;;;2.67;;
29344;SDS011;16339;48.748;2.222;2023-07-30T03:29:30;20.95;;;2.70;;
29344;SDS011;16339;48.748;2.222;2023-07-30T03:32:05;10.05;;;2.10;;
29344;SDS011;16339;48.748;2.222;2023-07-30T03:37:34;15.75;;;2.22;;
29344;SDS011;16339;48.748;2.222;2023-07-30T03:40:08;10.75;;;2.63;;
29344;SDS011;16339;48.748;2.222;2023-07-30T03:42:37;11.60;;;2.38;;
29344;SDS011;16339;48.748;2.222;2023-07-30T03:45:06;18.20;;;2.50;;
29344;SDS011;16339;48.748;2.222;2023-07-30T03:47:35;13.07;;;2.33;;
29344;SDS011;16339;48.748;2.222;2023-07-30T03:50:05;15.68;;;2.72;;
29344;SDS011;16339;48.748;2.222;2023-07-30T03:52:37;13.18;;;2.35;;
29344;SDS011;16339;48.748;2.222;2023-07-30T04:21:37;13.43;;;2.55;;
29344;SDS011;16339;48.748;2.222;2023-07-30T04:38:22;11.03;;;2.10;;
29344;SDS011;16339;48.748;2.222;2023-07-30T04:48:06;9.27;;;2.50;;
29344;SDS011;16339;48.748;2.222;2023-07-30T04:50:59;16.10;;;2.25;;
29344;SDS011;16339;48.748;2.222;2023-07-30T04:53:33;8.98;;;2.58;;
29344;SDS011;16339;48.748;2.222;2023-07-30T04:56:02;12.45;;;2.33;;
29344;SDS011;16339;48.748;2.222;2023-07-30T04:58:31;10.55;;;2.10;;
29344;SDS011;16339;48.748;2.222;2023-07-30T05:01:00;14.85;;;2.20;;
29344;SDS011;16339;48.748;2.222;2023-07-30T05:03:29;14.20;;;2.92;;
29344;SDS011;16339;48.748;2.222;2023-07-30T05:05:59;18.77;;;2.97;;
29344;SDS011;16339;48.748;2.222;2023-07-30T05:08:29;14.50;;;2.70;;
29344;SDS011;16339;48.748;2.222;2023-07-30T05:13:48;10.18;;;1.95;;
29344;SDS011;16339;48.748;2.222;2023-07-30T05:16:46;12.80;;;2.45;;
29344;SDS011;16339;48.748;2.222;2023-07-30T05:19:56;19.42;;;2.70;;
29344;SDS011;16339;48.748;2.222;2023-07-30T05:22:28;13.95;;;2.35;;
29344;SDS011;16339;48.748;2.222;2023-07-30T05:25:01;15.48;;;2.67;;
29344;SDS011;16339;48.748;2.222;2023-07-30T05:27:35;11.43;;;2.03;;
29344;SDS011;16339;48.748;2.222;2023-07-30T05:30:06;10.82;;;2.17;;
29344;SDS011;16339;48.748;2.222;2023-07-30T05:32:41;11.63;;;2.25;;
29344;SDS011;16339;48.748;2.222;2023-07-30T05:35:18;13.32;;;2.70;;
29344;SDS011;16339;48.748;2.222;2023-07-30T05:37:56;9.23;;;2.17;;
29344;SDS011;16339;48.748;2.222;2023-07-30T05:41:19;15.70;;;2.55;;
29344;SDS011;16339;48.748;2.222;2023-07-30T05:43:48;11.25;;;2.63;;
29344;SDS011;16339;48.748;2.222;2023-07-30T05:46:17;14.70;;;2.30;;
29344;SDS011;16339;48.748;2.222;2023-07-30T05:48:46;14.63;;;2.22;;
29344;SDS011;16339;48.748;2.222;2023-07-30T05:51:22;9.27;;;2.33;;
29344;SDS011;16339;48.748;2.222;2023-07-30T05:53:54;17.05;;;2.78;;
29344;SDS011;16339;48.748;2.222;2023-07-30T05:56:25;16.08;;;2.78;;
29344;SDS011;16339;48.748;2.222;2023-07-30T05:59:01;10.70;;;2.30;;
29344;SDS011;16339;48.748;2.222;2023-07-30T06:01:51;16.65;;;2.90;;
29344;SDS011;16339;48.748;2.222;2023-07-30T06:04:19;10.65;;;2.15;;
29344;SDS011;16339;48.748;2.222;2023-07-30T06:06:49;11.48;;;2.53;;
29344;SDS011;16339;48.748;2.222;2023-07-30T06:09:19;25.83;;;3.10;;
29344;SDS011;16339;48.748;2.222;2023-07-30T06:11:51;14.82;;;2.95;;
29344;SDS011;16339;48.748;2.222;2023-07-30T06:14:20;13.23;;;2.55;;
29344;SDS011;16339;48.748;2.222;2023-07-30T06:16:48;19.20;;;2.88;;
29344;SDS011;16339;48.748;2.222;2023-07-30T06:19:19;18.65;;;3.05;;
29344;SDS011;16339;48.748;2.222;2023-07-30T06:21:49;16.63;;;2.72;;
29344;SDS011;16339;48.748;2.222;2023-07-30T06:24:18;13.05;;;2.38;;
29344;SDS011;16339;48.748;2.222;2023-07-30T06:30:26;13.15;;;2.45;;
29344;SDS011;16339;48.748;2.222;2023-07-30T06:32:55;11.90;;;2.28;;
29344;SDS011;16339;48.748;2.222;2023-07-30T06:35:26;18.87;;;3.20;;
29344;SDS011;16339;48.748;2.222;2023-07-30T06:37:55;13.93;;;2.50;;
29344;SDS011;16339;48.748;2.222;2023-07-30T06:40:23;6.93;;;2.58;;
29344;SDS011;16339;48.748;2.222;2023-07-30T06:42:53;10.50;;;3.20;;
29344;SDS011;16339;48.748;2.222;2023-07-30T06:45:33;16.00;;;2.97;;
29344;SDS011;16339;48.748;2.222;2023-07-30T06:48:06;16.27;;;2.53;;
29344;SDS011;16339;48.748;2.222;2023-07-30T06:50:42;14.50;;;2.95;;
29344;SDS011;16339;48.748;2.222;2023-07-30T06:53:11;12.15;;;2.58;;
29344;SDS011;16339;48.748;2.222;2023-07-30T07:28:51;12.80;;;2.60;;
29344;SDS011;16339;48.748;2.222;2023-07-30T07:31:32;14.57;;;2.58;;
29344;SDS011;16339;48.748;2.222;2023-07-30T07:34:00;12.00;;;2.58;;
29344;SDS011;16339;48.748;2.222;2023-07-30T07:36:29;15.32;;;2.90;;
29344;SDS011;16339;48.748;2.222;2023-07-30T07:38:58;15.07;;;2.65;;
29344;SDS011;16339;48.748;2.222;2023-07-30T07:41:27;9.23;;;2.30;;
29344;SDS011;16339;48.748;2.222;2023-07-30T07:43:58;12.48;;;2.65;;
29344;SDS011;16339;48.748;2.222;2023-07-30T07:46:28;9.77;;;2.42;;
29344;SDS011;16339;48.748;2.222;2023-07-30T07:48:56;11.25;;;3.03;;
29344;SDS011;16339;48.748;2.222;2023-07-30T07:51:33;12.13;;;2.72;;
29344;SDS011;16339;48.748;2.222;2023-07-30T07:54:02;12.35;;;2.33;;
29344;SDS011;16339;48.748;2.222;2023-07-30T07:56:31;15.48;;;3.15;;
29344;SDS011;16339;48.748;2.222;2023-07-30T07:59:06;13.27;;;2.72;;
29344;SDS011;16339;48.748;2.222;2023-07-30T08:01:46;9.63;;;2.53;;
29344;SDS011;16339;48.748;2.222;2023-07-30T08:21:54;14.55;;;2.72;;
29344;SDS011;16339;48.748;2.222;2023-07-30T08:24:24;11.68;;;2.80;;
29344;SDS011;16339;48.748;2.222;2023-07-30T08:26:53;10.38;;;2.13;;
29344;SDS011;16339;48.748;2.222;2023-07-30T08:29:21;10.73;;;2.22;;
29344;SDS011;16339;48.748;2.222;2023-07-30T08:31:50;9.73;;;2.75;;
29344;SDS011;16339;48.748;2.222;2023-07-30T08:34:21;13.35;;;2.45;;
29344;SDS011;16339;48.748;2.222;2023-07-30T08:36:50;8.68;;;2.58;;
29344;SDS011;16339;48.748;2.222;2023-07-30T08:39:21;7.20;;;2.15;;
29344;SDS011;16339;48.748;2.222;2023-07-30T08:41:52;14.40;;;2.70;;
29344;SDS011;16339;48.748;2.222;2023-07-30T08:44:23;15.60;;;2.85;;
29344;SDS011;16339;48.748;2.222;2023-07-30T08:46:55;8.82;;;2.40;;
29344;SDS011;16339;48.748;2.222;2023-07-30T08:49:34;10.18;;;2.85;;
29344;SDS011;16339;48.748;2.222;2023-07-30T08:52:06;7.63;;;2.35;;
29344;SDS011;16339;48.748;2.222;2023-07-30T08:54:39;10.73;;;2.72;;
29344;SDS011;16339;48.748;2.222;2023-07-30T08:57:15;9.23;;;2.65;;
29344;SDS011;16339;48.748;2.222;2023-07-30T09:00:25;10.48;;;2.67;;
29344;SDS011;16339;48.748;2.222;2023-07-30T09:02:56;11.00;;;2.42;;
29344;SDS011;16339;48.748;2.222;2023-07-30T09:05:27;11.35;;;3.03;;
29344;SDS011;16339;48.748;2.222;2023-07-30T09:07:56;10.55;;;2.30;;
29344;SDS011;16339;48.748;2.222;2023-07-30T09:10:28;9.15;;;2.28;;
29344;SDS011;16339;48.748;2.222;2023-07-30T09:12:57;10.05;;;2.17;;
29344;SDS011;16339;48.748;2.222;2023-07-30T09:15:30;16.45;;;2.75;;
29344;SDS011;16339;48.748;2.222;2023-07-30T09:20:55;8.90;;;2.42;;
29344;SDS011;16339;48.748;2.222;2023-07-30T09:23:38;8.77;;;2.47;;
29344;SDS011;16339;48.748;2.222;2023-07-30T09:32:25;15.02;;;2.78;;
29344;SDS011;16339;48.748;2.222;2023-07-30T09:35:24;14.73;;;2.53;;
29344;SDS011;16339;48.748;2.222;2023-07-30T09:41:22;8.55;;;2.47;;
29344;SDS011;16339;48.748;2.222;2023-07-30T09:44:02;15.60;;;2.65;;
29344;SDS011;16339;48.748;2.222;2023-07-30T10:27:44;7.10;;;2.40;;
29344;SDS011;16339;48.748;2.222;2023-07-30T10:30:18;8.85;;;2.30;;
29344;SDS011;16339;48.748;2.222;2023-07-30T10:33:01;6.97;;;2.00;;
29344;SDS011;16339;48.748;2.222;2023-07-30T10:35:40;3.67;;;1.77;;
29344;SDS011;16339;48.748;2.222;2023-07-30T10:38:17;5.47;;;2.10;;
29344;SDS011;16339;48.748;2.222;2023-07-30T10:41:02;7.88;;;2.08;;
29344;SDS011;16339;48.748;2.222;2023-07-30T10:43:38;6.80;;;1.95;;
29344;SDS011;16339;48.748;2.222;2023-07-30T10:46:09;7.13;;;2.22;;
29344;SDS011;16339;48.748;2.222;2023-07-30T10:48:39;5.60;;;1.75;;
29344;SDS011;16339;48.748;2.222;2023-07-30T10:51:09;8.55;;;1.70;;
29344;SDS011;16339;48.748;2.222;2023-07-30T10:53:39;6.80;;;1.90;;
29344;SDS011;16339;48.748;2.222;2023-07-30T10:56:12;5.50;;;1.98;;
29344;SDS011;16339;48.748;2.222;2023-07-30T10:58:43;6.07;;;1.65;;
29344;SDS011;16339;48.748;2.222;2023-07-30T11:01:17;4.35;;;1.63;;
29344;SDS011;16339;48.748;2.222;2023-07-30T11:03:48;10.50;;;2.42;;
29344;SDS011;16339;48.748;2.222;2023-07-30T11:06:20;9.88;;;1.95;;
29344;SDS011;16339;48.748;2.222;2023-07-30T11:08:50;4.53;;;1.92;;
29344;SDS011;16339;48.748;2.222;2023-07-30T11:11:19;6.88;;;1.88;;
29344;SDS011;16339;48.748;2.222;2023-07-30T11:13:53;9.93;;;1.98;;
29344;SDS011;16339;48.748;2.222;2023-07-30T11:16:21;8.23;;;1.77;;
29344;SDS011;16339;48.748;2.222;2023-07-30T11:18:50;7.65;;;2.00;;
29344;SDS011;16339;48.748;2.222;2023-07-30T11:24:33;6.57;;;2.10;;
29344;SDS011;16339;48.748;2.222;2023-07-30T11:27:03;6.75;;;2.10;;
29344;SDS011;16339;48.748;2.222;2023-07-30T11:29:38;8.05;;;1.83;;
29344;SDS011;16339;48.748;2.222;2023-07-30T11:32:21;9.50;;;2.40;;
29344;SDS011;16339;48.748;2.222;2023-07-30T11:35:06;5.75;;;2.20;;
29344;SDS011;16339;48.748;2.222;2023-07-30T11:37:47;6.15;;;1.90;;
29344;SDS011;16339;48.748;2.222;2023-07-30T11:40:16;8.02;;;2.42;;
29344;SDS011;16339;48.748;2.222;2023-07-30T11:42:45;3.70;;;1.80;;
29344;SDS011;16339;48.748;2.222;2023-07-30T11:45:20;5.03;;;1.75;;
29344;SDS011;16339;48.748;2.222;2023-07-30T11:47:51;4.82;;;1.90;;
29344;SDS011;16339;48.748;2.222;2023-07-30T11:50:20;9.32;;;2.17;;
29344;SDS011;16339;48.748;2.222;2023-07-30T11:52:53;6.78;;;2.13;;
29344;SDS011;16339;48.748;2.222;2023-07-30T11:55:22;8.57;;;2.20;;
29344;SDS011;16339;48.748;2.222;2023-07-30T11:58:04;6.90;;;2.47;;
29344;SDS011;16339;48.748;2.222;2023-07-30T12:00:37;7.32;;;1.95;;
29344;SDS011;16339;48.748;2.222;2023-07-30T12:03:10;6.80;;;2.28;;
29344;SDS011;16339;48.748;2.222;2023-07-30T12:05:41;5.70;;;2.30;;
29344;SDS011;16339;48.748;2.222;2023-07-30T12:08:13;5.78;;;2.53;;
29344;SDS011;16339;48.748;2.222;2023-07-30T12:10:45;5.35;;;2.20;;
29344;SDS011;16339;48.748;2.222;2023-07-30T12:13:17;8.02;;;2.55;;
29344;SDS011;16339;48.748;2.222;2023-07-30T12:15:53;9.60;;;3.55;;
29344;SDS011;16339;48.748;2.222;2023-07-30T12:18:25;10.75;;;2.50;;
29344;SDS011;16339;48.748;2.222;2023-07-30T12:20:57;7.63;;;2.67;;
29344;SDS011;16339;48.748;2.222;2023-07-30T12:23:26;8.10;;;2.58;;
29344;SDS011;16339;48.748;2.222;2023-07-30T12:25:55;6.40;;;2.70;;
29344;SDS011;16339;48.748;2.222;2023-07-30T12:28:25;10.50;;;2.22;;
29344;SDS011;16339;48.748;2.222;2023-07-30T12:31:01;6.93;;;2.67;;
29344;SDS011;16339;48.748;2.222;2023-07-30T12:33:34;6.63;;;2.97;;
29344;SDS011;16339;48.748;2.222;2023-07-30T12:36:06;8.10;;;2.20;;
29344;SDS011;16339;48.748;2.222;2023-07-30T12:38:38;11.00;;;2.53;;
29344;SDS011;16339;48.748;2.222;2023-07-30T12:41:07;8.20;;;2.50;;
29344;SDS011;16339;48.748;2.222;2023-07-30T12:43:38;12.05;;;2.45;;
29344;SDS011;16339;48.748;2.222;2023-07-30T12:46:10;7.32;;;2.67;;
29344;SDS011;16339;48.748;2.222;2023-07-30T12:48:41;7.68;;;2.60;;
29344;SDS011;16339;48.748;2.222;2023-07-30T12:51:10;6.28;;;2.03;;
29344;SDS011;16339;48.748;2.222;2023-07-30T12:53:40;10.15;;;2.58;;
29344;SDS011;16339;48.748;2.222;2023-07-30T12:56:09;5.82;;;2.28;;
29344;SDS011;16339;48.748;2.222;2023-07-30T12:58:49;7.10;;;3.07;;
29344;SDS011;16339;48.748;2.222;2023-07-30T13:01:46;5.80;;;2.90;;
29344;SDS011;16339;48.748;2.222;2023-07-30T13:04:17;6.55;;;2.60;;
29344;SDS011;16339;48.748;2.222;2023-07-30T13:06:46;9.40;;;2.30;;
29344;SDS011;16339;48.748;2.222;2023-07-30T13:09:15;8.02;;;2.70;;
29344;SDS011;16339;48.748;2.222;2023-07-30T13:11:44;8.20;;;2.60;;
29344;SDS011;16339;48.748;2.222;2023-07-30T13:14:15;11.82;;;2.40;;
29344;SDS011;16339;48.748;2.222;2023-07-30T13:16:47;9.30;;;2.75;;
29344;SDS011;16339;48.748;2.222;2023-07-30T13:19:17;8.52;;;2.90;;
29344;SDS011;16339;48.748;2.222;2023-07-30T13:21:48;9.07;;;2.35;;
29344;SDS011;16339;48.748;2.222;2023-07-30T13:24:16;9.32;;;2.75;;
29344;SDS011;16339;48.748;2.222;2023-07-30T13:26:45;9.85;;;2.65;;
29344;SDS011;16339;48.748;2.222;2023-07-30T13:29:16;12.20;;;3.08;;
29344;SDS011;16339;48.748;2.222;2023-07-30T13:31:50;9.07;;;3.22;;
29344;SDS011;16339;48.748;2.222;2023-07-30T13:34:21;5.85;;;2.53;;
29344;SDS011;16339;48.748;2.222;2023-07-30T13:36:50;9.82;;;2.85;;
29344;SDS011;16339;48.748;2.222;2023-07-30T13:39:20;7.07;;;2.83;;
29344;SDS011;16339;48.748;2.222;2023-07-30T13:41:49;9.40;;;3.30;;
29344;SDS011;16339;48.748;2.222;2023-07-30T13:44:18;8.10;;;3.20;;
29344;SDS011;16339;48.748;2.222;2023-07-30T13:46:49;6.30;;;2.80;;
29344;SDS011;16339;48.748;2.222;2023-07-30T13:49:18;8.85;;;3.30;;
29344;SDS011;16339;48.748;2.222;2023-07-30T13:51:47;11.07;;;3.17;;
29344;SDS011;16339;48.748;2.222;2023-07-30T13:54:16;11.05;;;3.00;;
29344;SDS011;16339;48.748;2.222;2023-07-30T13:56:46;12.57;;;3.22;;
29344;SDS011;16339;48.748;2.222;2023-07-30T13:59:15;9.68;;;3.22;;
29344;SDS011;16339;48.748;2.222;2023-07-30T14:01:44;8.50;;;3.20;;
29344;SDS011;16339;48.748;2.222;2023-07-30T14:04:15;8.07;;;3.15;;
29344;SDS011;16339;48.748;2.222;2023-07-30T14:06:44;11.10;;;3.15;;
29344;SDS011;16339;48.748;2.222;2023-07-30T14:09:13;8.48;;;3.40;;
29344;SDS011;16339;48.748;2.222;2023-07-30T14:11:42;8.80;;;3.28;;
29344;SDS011;16339;48.748;2.222;2023-07-30T14:14:11;11.43;;;3.47;;
29344;SDS011;16339;48.748;2.222;2023-07-30T14:16:40;7.97;;;3.30;;
29344;SDS011;16339;48.748;2.222;2023-07-30T14:19:09;9.80;;;3.10;;
29344;SDS011;16339;48.748;2.222;2023-07-30T14:21:40;10.48;;;3.40;;
29344;SDS011;16339;48.748;2.222;2023-07-30T14:24:10;6.68;;;3.00;;
29344;SDS011;16339;48.748;2.222;2023-07-30T14:26:39;9.90;;;3.53;;
29344;SDS011;16339;48.748;2.222;2023-07-30T14:29:07;10.05;;;3.63;;
29344;SDS011;16339;48.748;2.222;2023-07-30T14:31:36;8.55;;;3.38;;
29344;SDS011;16339;48.748;2.222;2023-07-30T14:34:05;7.82;;;3.58;;
29344;SDS011;16339;48.748;2.222;2023-07-30T14:36:34;7.53;;;3.33;;
29344;SDS011;16339;48.748;2.222;2023-07-30T14:39:05;11.75;;;3.33;;
29344;SDS011;16339;48.748;2.222;2023-07-30T14:41:34;14.13;;;3.80;;
29344;SDS011;16339;48.748;2.222;2023-07-30T14:44:02;8.65;;;3.65;;
29344;SDS011;16339;48.748;2.222;2023-07-30T14:46:31;9.30;;;3.55;;
29344;SDS011;16339;48.748;2.222;2023-07-30T14:49:00;16.27;;;3.67;;
29344;SDS011;16339;48.748;2.222;2023-07-30T14:51:29;11.18;;;3.80;;
29344;SDS011;16339;48.748;2.222;2023-07-30T14:53:58;10.93;;;3.63;;
29344;SDS011;16339;48.748;2.222;2023-07-30T14:56:31;13.85;;;4.05;;
29344;SDS011;16339;48.748;2.222;2023-07-30T14:58:59;6.90;;;3.47;;
29344;SDS011;16339;48.748;2.222;2023-07-30T15:01:29;11.70;;;3.63;;
29344;SDS011;16339;48.748;2.222;2023-07-30T15:03:57;6.65;;;3.25;;
29344;SDS011;16339;48.748;2.222;2023-07-30T15:06:26;11.55;;;3.97;;
29344;SDS011;16339;48.748;2.222;2023-07-30T15:08:55;10.45;;;3.50;;
29344;SDS011;16339;48.748;2.222;2023-07-30T15:11:24;19.50;;;4.32;;
29344;SDS011;16339;48.748;2.222;2023-07-30T15:13:55;11.32;;;3.55;;
29344;SDS011;16339;48.748;2.222;2023-07-30T15:16:24;11.40;;;4.25;;
29344;SDS011;16339;48.748;2.222;2023-07-30T15:18:52;16.63;;;3.92;;
29344;SDS011;16339;48.748;2.222;2023-07-30T15:21:22;9.32;;;3.90;;
29344;SDS011;16339;48.748;2.222;2023-07-30T15:23:50;8.88;;;3.45;;
29344;SDS011;16339;48.748;2.222;2023-07-30T15:26:19;14.18;;;3.70;;
29344;SDS011;16339;48.748;2.222;2023-07-30T15:28:48;9.45;;;3.33;;
29344;SDS011;16339;48.748;2.222;2023-07-30T15:31:19;13.25;;;3.65;;
29344;SDS011;16339;48.748;2.222;2023-07-30T15:33:48;12.88;;;3.63;;
29344;SDS011;16339;48.748;2.222;2023-07-30T15:36:18;15.13;;;3.60;;
29344;SDS011;16339;48.748;2.222;2023-07-30T15:38:47;11.93;;;4.00;;
29344;SDS011;16339;48.748;2.222;2023-07-30T15:41:18;10.90;;;3.38;;
29344;SDS011;16339;48.748;2.222;2023-07-30T15:43:47;12.32;;;3.40;;
29344;SDS011;16339;48.748;2.222;2023-07-30T15:46:19;8.95;;;3.80;;
29344;SDS011;16339;48.748;2.222;2023-07-30T15:48:48;15.27;;;3.63;;
29344;SDS011;16339;48.748;2.222;2023-07-30T15:51:16;9.60;;;3.15;;
29344;SDS011;16339;48.748;2.222;2023-07-30T15:53:45;8.30;;;3.35;;
29344;SDS011;16339;48.748;2.222;2023-07-30T15:56:14;11.30;;;3.60;;
29344;SDS011;16339;48.748;2.222;2023-07-30T15:58:42;14.15;;;3.55;;
29344;SDS011;16339;48.748;2.222;2023-07-30T16:01:11;10.07;;;2.97;;
29344;SDS011;16339;48.748;2.222;2023-07-30T16:03:42;7.55;;;2.92;;
29344;SDS011;16339;48.748;2.222;2023-07-30T16:06:11;6.88;;;3.00;;
29344;SDS011;16339;48.748;2.222;2023-07-30T16:08:40;12.48;;;3.60;;
29344;SDS011;16339;48.748;2.222;2023-07-30T16:11:09;10.05;;;2.97;;
29344;SDS011;16339;48.748;2.222;2023-07-30T16:13:40;9.85;;;3.67;;
29344;SDS011;16339;48.748;2.222;2023-07-30T16:16:09;7.57;;;3.20;;
29344;SDS011;16339;48.748;2.222;2023-07-30T16:18:39;8.00;;;3.08;;
29344;SDS011;16339;48.748;2.222;2023-07-30T16:21:11;12.23;;;3.10;;
29344;SDS011;16339;48.748;2.222;2023-07-30T16:23:39;11.38;;;2.97;;
29344;SDS011;16339;48.748;2.222;2023-07-30T16:26:08;12.25;;;3.60;;
29344;SDS011;16339;48.748;2.222;2023-07-30T16:28:37;6.70;;;3.05;;
29344;SDS011;16339;48.748;2.222;2023-07-30T16:31:08;6.03;;;3.30;;
29344;SDS011;16339;48.748;2.222;2023-07-30T16:33:37;11.18;;;3.00;;
29344;SDS011;16339;48.748;2.222;2023-07-30T16:36:06;9.63;;;3.08;;
29344;SDS011;16339;48.748;2.222;2023-07-30T16:38:37;8.45;;;2.70;;
29344;SDS011;16339;48.748;2.222;2023-07-30T16:41:07;8.90;;;2.95;;
29344;SDS011;16339;48.748;2.222;2023-07-30T16:43:37;9.45;;;3.00;;
29344;SDS011;16339;48.748;2.222;2023-07-30T16:46:05;10.70;;;3.53;;
29344;SDS011;16339;48.748;2.222;2023-07-30T16:48:34;13.88;;;3.88;;
29344;SDS011;16339;48.748;2.222;2023-07-30T16:51:03;12.75;;;3.53;;
29344;SDS011;16339;48.748;2.222;2023-07-30T16:53:32;13.40;;;3.60;;
29344;SDS011;16339;48.748;2.222;2023-07-30T16:56:11;7.47;;;3.50;;
29344;SDS011;16339;48.748;2.222;2023-07-30T16:58:40;7.30;;;3.15;;
29344;SDS011;16339;48.748;2.222;2023-07-30T17:01:09;12.40;;;3.50;;
29344;SDS011;16339;48.748;2.222;2023-07-30T17:03:39;6.97;;;3.38;;
29344;SDS011;16339;48.748;2.222;2023-07-30T17:06:08;15.35;;;3.72;;
29344;SDS011;16339;48.748;2.222;2023-07-30T17:08:37;9.57;;;2.85;;
29344;SDS011;16339;48.748;2.222;2023-07-30T17:11:06;12.73;;;3.55;;
29344;SDS011;16339;48.748;2.222;2023-07-30T17:13:38;11.88;;;3.13;;
29344;SDS011;16339;48.748;2.222;2023-07-30T17:16:09;7.95;;;3.15;;
29344;SDS011;16339;48.748;2.222;2023-07-30T17:18:41;12.60;;;2.88;;
29344;SDS011;16339;48.748;2.222;2023-07-30T17:21:09;14.40;;;3.25;;
29344;SDS011;16339;48.748;2.222;2023-07-30T17:23:38;11.77;;;3.85;;
29344;SDS011;16339;48.748;2.222;2023-07-30T17:26:07;13.73;;;3.45;;
29344;SDS011;16339;48.748;2.222;2023-07-30T17:28:38;14.02;;;3.78;;
29344;SDS011;16339;48.748;2.222;2023-07-30T17:31:09;7.03;;;3.30;;
29344;SDS011;16339;48.748;2.222;2023-07-30T17:33:39;14.70;;;3.20;;
29344;SDS011;16339;48.748;2.222;2023-07-30T17:36:08;14.38;;;3.28;;
29344;SDS011;16339;48.748;2.222;2023-07-30T17:38:37;10.52;;;3.58;;
29344;SDS011;16339;48.748;2.222;2023-07-30T17:41:07;11.30;;;3.42;;
29344;SDS011;16339;48.748;2.222;2023-07-30T17:43:40;8.10;;;3.22;;
29344;SDS011;16339;48.748;2.222;2023-07-30T17:48:37;12.05;;;3.65;;
29344;SDS011;16339;48.748;2.222;2023-07-30T17:51:12;7.38;;;3.35;;
29344;SDS011;16339;48.748;2.222;2023-07-30T17:53:42;13.55;;;3.22;;
29344;SDS011;16339;48.748;2.222;2023-07-30T17:56:11;14.18;;;4.00;;
29344;SDS011;16339;48.748;2.222;2023-07-30T17:58:42;9.82;;;3.20;;
29344;SDS011;16339;48.748;2.222;2023-07-30T18:01:11;11.95;;;3.78;;
29344;SDS011;16339;48.748;2.222;2023-07-30T18:03:40;8.32;;;3.35;;
29344;SDS011;16339;48.748;2.222;2023-07-30T18:06:09;8.80;;;3.30;;
29344;SDS011;16339;48.748;2.222;2023-07-30T18:08:38;8.55;;;3.17;;
29344;SDS011;16339;48.748;2.222;2023-07-30T18:11:06;9.23;;;3.35;;
29344;SDS011;16339;48.748;2.222;2023-07-30T18:13:37;12.32;;;3.55;;
29344;SDS011;16339;48.748;2.222;2023-07-30T18:16:08;7.65;;;3.35;;
29344;SDS011;16339;48.748;2.222;2023-07-30T18:18:38;16.33;;;3.17;;
29344;SDS011;16339;48.748;2.222;2023-07-30T18:21:07;8.18;;;3.45;;
29344;SDS011;16339;48.748;2.222;2023-07-30T18:23:35;12.90;;;3.03;;
29344;SDS011;16339;48.748;2.222;2023-07-30T18:26:05;9.27;;;3.42;;
29344;SDS011;16339;48.748;2.222;2023-07-30T18:28:34;17.33;;;3.33;;
29344;SDS011;16339;48.748;2.222;2023-07-30T18:31:05;13.65;;;3.33;;
29344;SDS011;16339;48.748;2.222;2023-07-30T18:33:36;10.70;;;3.30;;
29344;SDS011;16339;48.748;2.222;2023-07-30T18:38:33;9.13;;;3.10;;
29344;SDS011;16339;48.748;2.222;2023-07-30T18:41:02;6.25;;;3.00;;
29344;SDS011;16339;48.748;2.222;2023-07-30T18:43:32;12.70;;;2.83;;
29344;SDS011;16339;48.748;2.222;2023-07-30T18:46:01;6.65;;;2.58;;
29344;SDS011;16339;48.748;2.222;2023-07-30T18:48:30;10.43;;;2.70;;
29344;SDS011;16339;48.748;2.222;2023-07-30T18:51:01;6.32;;;3.00;;
29344;SDS011;16339;48.748;2.222;2023-07-30T18:55:58;8.15;;;2.72;;
29344;SDS011;16339;48.748;2.222;2023-07-30T18:58:29;9.05;;;3.00;;
29344;SDS011;16339;48.748;2.222;2023-07-30T19:00:58;11.35;;;2.75;;
29344;SDS011;16339;48.748;2.222;2023-07-30T19:03:26;8.63;;;2.90;;
29344;SDS011;16339;48.748;2.222;2023-07-30T19:05:55;9.02;;;2.88;;
29344;SDS011;16339;48.748;2.222;2023-07-30T19:08:28;10.80;;;2.67;;
29344;SDS011;16339;48.748;2.222;2023-07-30T19:13:25;10.23;;;3.22;;
29344;SDS011;16339;48.748;2.222;2023-07-30T19:15:55;8.52;;;3.10;;
29344;SDS011;16339;48.748;2.222;2023-07-30T19:18:24;6.78;;;2.95;;
29344;SDS011;16339;48.748;2.222;2023-07-30T19:20:53;11.05;;;3.08;;
29344;SDS011;16339;48.748;2.222;2023-07-30T19:23:22;11.98;;;3.05;;
29344;SDS011;16339;48.748;2.222;2023-07-30T19:25:53;15.18;;;2.80;;
29344;SDS011;16339;48.748;2.222;2023-07-30T19:30:50;9.82;;;2.70;;
29344;SDS011;16339;48.748;2.222;2023-07-30T19:33:19;7.80;;;3.22;;
29344;SDS011;16339;48.748;2.222;2023-07-30T19:35:48;11.32;;;3.50;;
29344;SDS011;16339;48.748;2.222;2023-07-30T19:38:16;9.80;;;3.40;;
29344;SDS011;16339;48.748;2.222;2023-07-30T19:40:45;13.00;;;3.53;;
29344;SDS011;16339;48.748;2.222;2023-07-30T19:43:21;8.05;;;2.65;;
29344;SDS011;16339;48.748;2.222;2023-07-30T19:45:51;12.48;;;3.10;;
29344;SDS011;16339;48.748;2.222;2023-07-30T19:48:20;12.75;;;3.38;;
29344;SDS011;16339;48.748;2.222;2023-07-30T19:50:49;9.20;;;3.58;;
29344;SDS011;16339;48.748;2.222;2023-07-30T19:53:18;16.50;;;3.05;;
29344;SDS011;16339;48.748;2.222;2023-07-30T19:55:47;9.50;;;3.70;;
29344;SDS011;16339;48.748;2.222;2023-07-30T19:58:26;9.85;;;3.33;;
29344;SDS011;16339;48.748;2.222;2023-07-30T20:00:56;11.13;;;3.13;;
29344;SDS011;16339;48.748;2.222;2023-07-30T20:03:26;12.52;;;2.85;;
29344;SDS011;16339;48.748;2.222;2023-07-30T20:05:57;10.75;;;3.28;;
29344;SDS011;16339;48.748;2.222;2023-07-30T20:08:27;7.45;;;3.38;;
29344;SDS011;16339;48.748;2.222;2023-07-30T20:10:56;10.43;;;3.33;;
29344;SDS011;16339;48.748;2.222;2023-07-30T20:13:28;8.35;;;3.05;;
29344;SDS011;16339;48.748;2.222;2023-07-30T20:15:57;15.52;;;3.13;;
29344;SDS011;16339;48.748;2.222;2023-07-30T20:18:27;9.57;;;3.13;;
29344;SDS011;16339;48.748;2.222;2023-07-30T20:20:56;8.80;;;3.20;;
29344;SDS011;16339;48.748;2.222;2023-07-30T20:23:24;13.02;;;3.30;;
29344;SDS011;16339;48.748;2.222;2023-07-30T20:25:53;10.75;;;3.05;;
29344;SDS011;16339;48.748;2.222;2023-07-30T20:28:22;14.77;;;3.40;;
29344;SDS011;16339;48.748;2.222;2023-07-30T20:30:53;12.80;;;3.30;;
29344;SDS011;16339;48.748;2.222;2023-07-30T20:33:23;16.88;;;3.20;;
29344;SDS011;16339;48.748;2.222;2023-07-30T20:35:51;13.32;;;3.35;;
29344;SDS011;16339;48.748;2.222;2023-07-30T20:38:20;8.60;;;2.92;;
29344;SDS011;16339;48.748;2.222;2023-07-30T20:40:49;17.08;;;3.72;;
29344;SDS011;16339;48.748;2.222;2023-07-30T20:43:18;7.18;;;2.83;;
29344;SDS011;16339;48.748;2.222;2023-07-30T20:45:46;14.07;;;3.00;;
29344;SDS011;16339;48.748;2.222;2023-07-30T20:48:18;10.82;;;3.00;;
29344;SDS011;16339;48.748;2.222;2023-07-30T20:53:15;13.27;;;2.95;;
29344;SDS011;16339;48.748;2.222;2023-07-30T20:55:44;7.68;;;3.17;;
29344;SDS011;16339;48.748;2.222;2023-07-30T20:58:13;38.80;;;4.25;;